Time;durP1;ratioP1;P1;durP2;ratioP2;P2;SDS_P1;SDS_P2;PMS_P1;PMS_P2;Temp;Humidity;BMP_temperature;BMP_pressure;BME280_temperature;BME280_humidity;BME280_pressure;Samples;Min_cycle;Max_cycle;Signal;HPM_P1;HPM_P2
2022/05/11 00:01:12;;;;;;;9.32;2.30;;;;;;;12.48;100.00;99331.91;5083457;28;20200;-81
2022/05/11 00:03:40;;;;;;;9.20;2.17;;;;;;;12.27;100.00;99331.56;5115127;28;20039;-81
2022/05/11 00:06:08;;;;;;;5.88;1.70;;;;;;;12.38;100.00;99299.34;5096720;28;20050;-81
2022/05/11 00:08:35;;;;;;;8.05;2.08;;;;;;;12.64;100.00;99323.81;5115260;28;20054;-81
2022/05/11 00:11:04;;;;;;;6.05;1.60;;;;;;;12.62;100.00;99309.97;5092806;28;20504;-81
2022/05/11 00:13:32;;;;;;;5.75;1.48;;;;;;;12.53;100.00;99298.28;5094840;28;20044;-82
2022/05/11 00:15:59;;;;;;;5.03;1.40;;;;;;;12.44;100.00;99270.06;5092988;28;20055;-82
2022/05/11 00:18:26;;;;;;;7.45;1.55;;;;;;;12.44;100.00;99285.81;5093402;28;20136;-82
2022/05/11 00:20:52;;;;;;;8.20;1.80;;;;;;;11.98;100.00;99279.25;5113436;28;20539;-82
2022/05/11 00:23:19;;;;;;;6.20;1.50;;;;;;;12.34;100.00;99323.19;5114539;28;20040;-82
2022/05/11 00:25:46;;;;;;;7.22;1.77;;;;;;;12.19;100.00;99334.69;5097210;28;20059;-82
2022/05/11 00:28:13;;;;;;;6.40;1.95;;;;;;;12.56;100.00;99295.47;5114025;28;20047;-82
2022/05/11 00:30:40;;;;;;;8.88;1.92;;;;;;;12.07;100.00;99275.19;5094759;28;20777;-81
2022/05/11 00:33:07;;;;;;;10.18;1.55;;;;;;;12.71;100.00;99304.94;5114264;28;20048;-82
2022/05/11 00:35:35;;;;;;;8.05;1.65;;;;;;;12.67;100.00;99303.44;5114514;28;20048;-81
2022/05/11 00:38:03;;;;;;;8.82;2.35;;;;;;;12.50;100.00;99290.63;5114329;28;20051;-81
2022/05/11 00:40:31;;;;;;;11.10;1.75;;;;;;;12.41;100.00;99291.25;5114794;28;20130;-82
2022/05/11 00:42:58;;;;;;;8.55;1.70;;;;;;;12.45;100.00;99256.84;5094866;28;20126;-81
2022/05/11 00:45:25;;;;;;;7.10;1.63;;;;;;;12.90;100.00;99261.59;5095866;28;20058;-81
2022/05/11 00:49:33;;;;;;;8.38;1.77;;;;;;;12.65;100.00;99238.84;5108769;28;20062;-81
2022/05/11 00:50:55;;;;;;;7.70;2.17;;;;;;;12.79;100.00;99277.28;5105713;28;20479;-81
2022/05/11 00:53:22;;;;;;;9.05;1.90;;;;;;;12.70;100.00;99271.72;5095919;28;20401;-81
2022/05/11 00:55:59;;;;;;;8.50;2.20;;;;;;;12.50;100.00;99257.34;5096200;28;20054;-82
2022/05/11 00:58:33;;;;;;;10.52;1.90;;;;;;;12.49;100.00;99228.59;5096024;28;20138;-82
2022/05/11 01:01:00;;;;;;;;;;;;;;;12.66;100.00;99274.66;5095691;28;20075;-81
2022/05/11 01:03:36;;;;;;;6.28;1.77;;;;;;;12.65;100.00;99278.25;5113234;28;19959;-81
2022/05/11 01:06:05;;;;;;;10.50;1.85;;;;;;;12.40;100.00;99261.56;5113531;28;20062;-82
2022/05/11 01:08:32;;;;;;;7.43;1.83;;;;;;;12.71;100.00;99226.16;5114315;28;20062;-81
2022/05/11 01:11:03;;;;;;;9.23;2.03;;;;;;;12.78;100.00;99270.34;5095515;28;20487;-82
2022/05/11 01:13:32;;;;;;;8.55;1.55;;;;;;;12.82;100.00;99269.16;5096086;28;20052;-81
2022/05/11 01:16:00;;;;;;;5.38;1.45;;;;;;;12.83;100.00;99269.06;5095796;28;20477;-81
2022/05/11 01:18:29;;;;;;;7.55;1.70;;;;;;;12.51;100.00;99292.31;5095924;28;20043;-82
2022/05/11 01:20:56;;;;;;;10.30;1.92;;;;;;;12.67;100.00;99264.06;5085631;28;20062;-82
2022/05/11 01:23:38;;;;;;;6.53;1.77;;;;;;;12.72;100.00;99276.88;5095477;28;20047;-82
2022/05/11 01:26:05;;;;;;;7.85;1.70;;;;;;;12.61;100.00;99245.28;5094609;28;20047;-82
2022/05/11 01:28:33;;;;;;;6.20;1.88;;;;;;;12.19;100.00;99214.00;5113351;28;20048;-82
2022/05/11 01:31:06;;;;;;;5.53;1.70;;;;;;;12.68;100.00;99252.63;5112680;28;20047;-82
2022/05/11 01:33:34;;;;;;;;;;;;;;;12.40;100.00;99243.19;5095703;28;20047;-82
2022/05/11 01:36:27;;;;;;;8.48;2.20;;;;;;;11.93;100.00;99177.28;5095334;28;19919;-82
2022/05/11 01:39:04;;;;;;;12.68;2.65;;;;;;;12.36;100.00;99236.47;5095088;28;20544;-83
2022/05/11 01:41:34;;;;;;;11.23;2.28;;;;;;;12.19;100.00;99229.75;5112195;28;20047;-82
2022/05/11 01:44:04;;;;;;;9.98;1.75;;;;;;;12.61;100.00;99242.66;5112699;28;20054;-82
2022/05/11 01:46:33;;;;;;;8.52;2.00;;;;;;;12.39;100.00;99207.38;5113553;28;20051;-82
2022/05/11 01:49:00;;;;;;;9.93;1.98;;;;;;;12.16;100.00;99201.09;5113212;28;20401;-82
2022/05/11 01:51:27;;;;;;;6.60;1.70;;;;;;;12.53;100.00;99233.50;5094069;28;20146;-82
2022/05/11 01:53:54;;;;;;;14.77;2.28;;;;;;;12.54;100.00;99237.81;5095080;28;20040;-82
2022/05/11 01:56:23;;;;;;;9.80;2.00;;;;;;;12.48;100.00;99191.00;5095435;28;20051;-82
2022/05/11 01:58:51;;;;;;;11.98;2.78;;;;;;;12.37;100.00;99184.81;5094878;28;20058;-82
2022/05/11 02:01:20;;;;;;;8.27;2.50;;;;;;;12.39;100.00;99170.63;5099266;28;20577;-82
2022/05/11 02:03:47;;;;;;;6.72;2.20;;;;;;;12.21;100.00;99175.38;5108585;28;20694;-82
2022/05/11 02:09:01;;;;;;;9.23;2.25;;;;;;;12.47;100.00;99197.19;5112722;28;20527;-82
2022/05/11 02:11:28;;;;;;;5.97;1.88;;;;;;;12.69;100.00;99195.66;5093434;28;20050;-82
2022/05/11 02:13:57;;;;;;;6.47;1.63;;;;;;;13.00;100.00;99198.75;5094641;28;20424;-82
2022/05/11 02:16:25;;;;;;;7.60;1.67;;;;;;;13.03;100.00;99190.63;5094706;28;20615;-82
2022/05/11 02:18:54;;;;;;;6.20;1.60;;;;;;;12.98;100.00;99185.72;5094632;28;20045;-82
2022/05/11 02:21:22;;;;;;;8.88;1.98;;;;;;;12.52;100.00;99157.50;5080550;28;20052;-82
2022/05/11 02:23:50;;;;;;;7.43;1.85;;;;;;;12.61;100.00;99142.88;5091575;28;20393;-82
2022/05/11 02:26:22;;;;;;;5.30;1.50;;;;;;;12.99;100.00;99174.25;5091178;28;20063;-82
2022/05/11 02:28:50;;;;;;;9.35;2.22;;;;;;;12.62;100.00;99127.00;5108920;28;20074;-82
2022/05/11 02:31:18;;;;;;;5.80;1.73;;;;;;;12.84;100.00;99157.00;5089976;28;20135;-82
2022/05/11 02:33:45;;;;;;;8.25;1.80;;;;;;;12.80;100.00;99152.88;5113213;27;20045;-82
2022/05/11 02:36:12;;;;;;;11.40;2.28;;;;;;;12.10;100.00;99125.44;5133082;27;20146;-82
2022/05/11 02:38:41;;;;;;;7.25;1.70;;;;;;;12.39;100.00;99133.88;5114869;28;20057;-82
2022/05/11 02:41:08;;;;;;;13.18;3.72;;;;;;;12.22;100.00;99134.25;5090535;28;20127;-82
2022/05/11 02:43:35;;;;;;;7.38;1.98;;;;;;;12.56;100.00;99124.00;5108165;28;20052;-82
2022/05/11 02:46:02;;;;;;;8.38;2.10;;;;;;;12.38;100.00;99133.97;5112122;28;20131;-82
2022/05/11 02:48:32;;;;;;;10.70;2.85;;;;;;;12.70;100.00;99126.47;5112352;28;20097;-82
2022/05/11 02:51:00;;;;;;;8.75;2.58;;;;;;;12.73;100.00;99137.59;5093426;28;20431;-81
2022/05/11 02:53:28;;;;;;;9.48;2.40;;;;;;;12.86;100.00;99124.38;5112272;28;20138;-81
2022/05/11 02:55:56;;;;;;;7.22;2.22;;;;;;;12.61;100.00;99129.75;5094118;28;20050;-81
2022/05/11 02:58:27;;;;;;;11.10;1.92;;;;;;;12.72;100.00;99130.63;5093390;28;20058;-81
2022/05/11 03:00:58;;;;;;;8.40;1.90;;;;;;;12.78;100.00;99110.97;5092509;28;20131;-81
2022/05/11 03:03:25;;;;;;;9.18;1.92;;;;;;;12.54;100.00;99068.97;5094043;28;20043;-81
2022/05/11 03:05:52;;;;;;;9.75;2.08;;;;;;;12.96;100.00;99121.94;5111732;28;20055;-80
2022/05/11 03:08:20;;;;;;;13.23;2.22;;;;;;;12.76;100.00;99106.78;5094236;28;20057;-79
2022/05/11 03:10:48;;;;;;;11.40;2.17;;;;;;;12.86;100.00;99110.44;5090979;28;20044;-79
2022/05/11 03:13:16;;;;;;;10.05;2.30;;;;;;;12.94;100.00;99097.56;5094169;28;20044;-79
2022/05/11 03:15:43;;;;;;;11.68;1.95;;;;;;;12.65;100.00;99104.94;5095366;28;20707;-79
2022/05/11 03:18:12;;;;;;;12.13;3.55;;;;;;;12.35;100.00;99093.06;5097773;28;20047;-79
2022/05/11 03:20:39;;;;;;;10.48;2.53;;;;;;;12.72;100.00;99098.28;5087687;28;20048;-79
2022/05/11 03:23:06;;;;;;;9.23;2.47;;;;;;;12.58;100.00;99090.59;5097922;28;20047;-79
2022/05/11 03:25:33;;;;;;;10.88;2.15;;;;;;;12.59;100.00;99090.47;5115095;28;20047;-78
2022/05/11 03:27:59;;;;;;;11.55;2.10;;;;;;;12.65;100.00;99094.44;5115926;28;20061;-79
2022/05/11 03:30:27;;;;;;;8.02;2.08;;;;;;;12.94;100.00;99091.47;5090563;28;20052;-79
2022/05/11 03:35:39;;;;;;;14.43;2.40;;;;;;;12.42;100.00;99086.44;5114926;28;20048;-80
2022/05/11 03:38:05;;;;;;;9.35;2.20;;;;;;;12.47;100.00;99083.47;5097162;28;20408;-80
2022/05/11 03:40:32;;;;;;;7.82;2.05;;;;;;;12.20;100.00;99071.38;5115526;28;20054;-81
2022/05/11 03:43:01;;;;;;;11.05;2.10;;;;;;;12.64;100.00;99074.38;5080570;28;20055;-78
2022/05/11 03:45:28;;;;;;;7.80;2.53;;;;;;;12.47;100.00;99091.34;5076749;28;20048;-80
2022/05/11 03:47:55;;;;;;;9.65;2.05;;;;;;;12.59;100.00;99081.75;5101049;28;20039;-80
2022/05/11 03:50:23;;;;;;;8.60;1.80;;;;;;;12.57;100.00;99060.88;5097680;28;20666;-80
2022/05/11 03:52:51;;;;;;;12.30;1.95;;;;;;;12.94;100.00;99081.78;5113542;28;20047;-80
2022/05/11 03:55:20;;;;;;;6.25;1.88;;;;;;;12.94;100.00;99071.28;5083928;28;20462;-80
2022/05/11 03:57:47;;;;;;;9.65;1.95;;;;;;;12.37;100.00;99058.84;5094618;28;20044;-81
2022/05/11 04:00:21;;;;;;;10.48;2.80;;;;;;;13.00;100.00;99081.34;5094593;28;20606;-80
2022/05/11 04:02:50;;;;;;;7.07;1.95;;;;;;;12.59;100.00;99048.47;5096603;28;20056;-80
2022/05/11 04:05:18;;;;;;;9.82;2.05;;;;;;;12.58;100.00;99083.53;5089370;28;20082;-80
2022/05/11 04:07:45;;;;;;;6.90;1.92;;;;;;;12.84;100.00;99072.94;5115284;28;20065;-80
2022/05/11 04:10:14;;;;;;;8.38;1.85;;;;;;;13.11;100.00;99067.41;5097159;28;20058;-80
2022/05/11 04:12:41;;;;;;;8.07;1.80;;;;;;;12.77;100.00;99046.28;5096505;28;20051;-80
2022/05/11 04:15:09;;;;;;;9.05;1.95;;;;;;;13.08;100.00;99067.63;5114047;28;20062;-79
2022/05/11 04:17:37;;;;;;;9.98;2.05;;;;;;;12.74;100.00;99078.00;5096335;28;20492;-79
2022/05/11 04:20:05;;;;;;;7.30;1.73;;;;;;;12.82;100.00;99062.53;5096116;28;20058;-80
2022/05/11 04:22:31;;;;;;;7.18;1.80;;;;;;;13.13;100.00;99065.50;5113799;28;20051;-80
2022/05/11 04:24:59;;;;;;;4.70;1.45;;;;;;;13.32;100.00;99085.19;5095856;28;20048;-80
2022/05/11 04:27:26;;;;;;;8.23;2.42;;;;;;;12.64;100.00;99087.50;5094742;28;20051;-80
2022/05/11 04:29:52;;;;;;;6.07;1.25;;;;;;;12.98;100.00;99067.50;5096930;28;20043;-80
2022/05/11 04:32:19;;;;;;;10.20;1.65;;;;;;;12.97;100.00;99068.44;5113867;28;20048;-80
2022/05/11 04:34:46;;;;;;;6.10;2.00;;;;;;;12.57;100.00;99065.25;5096197;28;20048;-79
2022/05/11 04:37:14;;;;;;;7.78;1.60;;;;;;;13.11;100.00;99063.00;5095650;28;20051;-81
2022/05/11 04:39:41;;;;;;;4.22;1.40;;;;;;;13.00;100.00;99043.75;5096621;28;20488;-80
2022/05/11 04:42:10;;;;;;;7.95;1.67;;;;;;;12.90;100.00;99062.78;5113595;28;20130;-80
2022/05/11 04:44:37;;;;;;;6.88;1.63;;;;;;;12.53;100.00;99054.16;5096556;28;20047;-80
2022/05/11 04:47:08;;;;;;;7.97;1.50;;;;;;;12.85;100.00;99050.97;5096061;28;20572;-80
2022/05/11 04:49:36;;;;;;;5.30;1.38;;;;;;;12.84;100.00;99036.16;5113848;28;20058;-81
2022/05/11 04:52:14;;;;;;;6.32;1.77;;;;;;;12.98;100.00;99050.88;5094027;28;20055;-80
2022/05/11 04:54:48;;;;;;;7.57;1.50;;;;;;;12.60;100.00;99044.03;5095592;28;21969;-80
2022/05/11 04:57:19;;;;;;;6.28;1.67;;;;;;;12.68;100.00;99045.16;5095061;28;20052;-80
2022/05/11 04:59:46;;;;;;;8.00;1.70;;;;;;;12.77;100.00;99032.31;5112850;28;20070;-81
2022/05/11 05:02:17;;;;;;;5.55;1.40;;;;;;;12.72;100.00;99070.25;5113216;28;20518;-80
2022/05/11 05:04:44;;;;;;;5.43;1.40;;;;;;;12.94;100.00;99071.28;5094496;28;20039;-81
2022/05/11 05:07:11;;;;;;;8.10;1.50;;;;;;;13.13;100.00;99069.94;5088497;28;20091;-80
2022/05/11 05:09:38;;;;;;;4.38;1.35;;;;;;;12.81;100.00;99041.63;5113159;28;20377;-80
2022/05/11 05:12:05;;;;;;;5.90;1.40;;;;;;;13.13;100.00;99085.69;5094780;28;20163;-80
2022/05/11 05:14:32;;;;;;;6.28;2.10;;;;;;;13.16;100.00;99086.31;5095222;28;20043;-80
2022/05/11 05:17:04;;;;;;;4.35;1.17;;;;;;;13.30;100.00;99083.47;5094914;28;20054;-81
2022/05/11 05:19:31;;;;;;;9.32;2.15;;;;;;;13.22;100.00;99072.69;5095820;28;20051;-80
2022/05/11 05:21:59;;;;;;;6.60;1.65;;;;;;;13.23;100.00;99053.34;5094266;28;20051;-80
2022/05/11 05:24:25;;;;;;;7.00;1.25;;;;;;;13.15;100.00;99084.63;5113359;28;20043;-80
2022/05/11 05:26:52;;;;;;;5.13;1.52;;;;;;;13.27;100.00;99091.59;5099465;28;20044;-79
2022/05/11 05:32:05;;;;;;;4.78;1.20;;;;;;;12.75;100.00;99070.97;5110298;28;20092;-80
2022/05/11 05:34:32;;;;;;;6.30;1.30;;;;;;;13.08;100.00;99073.75;5113176;28;20484;-80
2022/05/11 05:36:58;;;;;;;7.78;1.13;;;;;;;13.33;100.00;99079.81;5095196;28;20071;-81
2022/05/11 05:39:25;;;;;;;5.15;1.15;;;;;;;13.34;100.00;99093.81;5093949;28;20054;-81
2022/05/11 05:41:52;;;;;;;3.00;0.98;;;;;;;13.38;100.00;99097.88;5092650;28;20062;-81
2022/05/11 05:44:19;;;;;;;4.05;1.00;;;;;;;13.29;100.00;99087.03;5093829;28;20047;-81
2022/05/11 05:46:46;;;;;;;5.15;1.30;;;;;;;13.38;100.00;99055.81;5074584;28;20058;-81
2022/05/11 05:49:14;;;;;;;4.95;1.10;;;;;;;13.74;100.00;99093.38;5093213;28;20421;-81
2022/05/11 05:51:40;;;;;;;3.55;1.00;;;;;;;13.70;100.00;99077.00;5108138;28;20051;-81
2022/05/11 05:54:07;;;;;;;5.22;1.20;;;;;;;13.39;100.00;99058.31;5105766;28;20383;-81
2022/05/11 05:56:34;;;;;;;3.30;1.00;;;;;;;13.56;100.00;99082.47;5088496;28;20060;-82
2022/05/11 05:59:05;;;;;;;4.55;1.38;;;;;;;13.85;100.00;99102.13;5106850;28;20044;-81
2022/05/11 06:01:33;;;;;;;4.53;1.30;;;;;;;13.29;100.00;99055.50;5094453;28;20093;-81
2022/05/11 06:04:00;;;;;;;5.85;1.25;;;;;;;13.91;100.00;99087.66;5104387;28;20840;-82
2022/05/11 06:06:27;;;;;;;3.65;1.00;;;;;;;14.94;100.00;99089.19;5095586;28;20048;-81
2022/05/11 06:08:53;;;;;;;4.13;0.90;;;;;;;15.83;95.43;99080.91;5106406;28;20429;-82
2022/05/11 06:11:20;;;;;;;2.22;0.98;;;;;;;16.15;89.59;99091.34;5087977;28;20049;-81
2022/05/11 06:13:47;;;;;;;2.95;0.90;;;;;;;16.28;88.25;99054.13;5084269;28;20127;-81
2022/05/11 06:16:16;;;;;;;3.58;1.00;;;;;;;16.60;80.93;99068.94;5083245;28;20051;-81
2022/05/11 06:18:45;;;;;;;2.90;0.90;;;;;;;17.12;77.26;99111.00;5086100;28;20401;-81
2022/05/11 06:21:14;;;;;;;2.25;0.70;;;;;;;17.43;74.58;99109.88;5101550;28;20487;-81
2022/05/11 06:23:41;;;;;;;2.90;0.82;;;;;;;18.06;73.04;99111.16;5088192;28;20048;-81
2022/05/11 06:26:10;;;;;;;2.15;0.75;;;;;;;18.77;69.13;99097.25;5090790;28;20047;-81
2022/05/11 06:28:40;;;;;;;1.60;0.68;;;;;;;17.84;68.69;99110.47;5087586;28;20067;-81
2022/05/11 06:31:16;;;;;;;0.88;0.60;;;;;;;18.49;68.72;99098.25;5087174;28;20040;-81
2022/05/11 06:33:49;;;;;;;1.55;0.63;;;;;;;17.76;62.74;99078.63;5085832;28;20093;-82
2022/05/11 06:36:17;;;;;;;2.88;0.80;;;;;;;18.43;58.47;99101.50;5104132;28;20052;-82
2022/05/11 06:38:44;;;;;;;0.73;0.60;;;;;;;18.42;59.12;99086.59;5106944;28;20052;-81
2022/05/11 06:41:16;;;;;;;1.48;0.80;;;;;;;18.63;56.74;99120.75;5103265;28;20054;-81
2022/05/11 06:43:44;;;;;;;1.85;0.70;;;;;;;18.59;60.47;99107.81;5083738;28;20051;-82
2022/05/11 06:46:12;;;;;;;1.42;0.60;;;;;;;19.29;56.79;99122.28;5084186;28;20078;-80
2022/05/11 06:48:45;;;;;;;2.35;0.70;;;;;;;19.40;56.15;99118.53;5085195;28;20090;-82
2022/05/11 06:51:13;;;;;;;0.43;0.43;;;;;;;20.06;59.65;99118.03;5089928;28;20054;-81
2022/05/11 06:59:24;;;;;;;0.70;0.50;;;;;;;19.87;56.19;99107.63;5108913;28;20465;-82
2022/05/11 07:01:53;;;;;;;2.25;0.60;;;;;;;20.37;52.91;99124.63;5088577;28;20688;-82
2022/05/11 07:04:22;;;;;;;1.75;0.93;;;;;;;21.15;53.99;99119.03;5083009;28;20101;-82
2022/05/11 07:06:56;;;;;;;1.95;0.60;;;;;;;20.73;51.30;99127.94;5083055;28;20050;-82
2022/05/11 07:09:25;;;;;;;1.85;0.60;;;;;;;20.73;53.67;99129.75;5096686;28;20058;-83
2022/05/11 07:14:39;;;;;;;0.73;0.50;;;;;;;20.99;48.80;99129.66;5114996;28;20123;-83
2022/05/11 07:17:05;;;;;;;0.93;0.43;;;;;;;20.92;48.17;99132.13;5096870;28;20473;-83
2022/05/11 07:19:33;;;;;;;1.08;0.50;;;;;;;20.84;47.74;99130.31;5097577;28;20047;-83
2022/05/11 07:22:01;;;;;;;2.72;0.70;;;;;;;20.23;47.93;99134.88;5096254;28;20258;-83
2022/05/11 07:24:28;;;;;;;0.70;0.40;;;;;;;19.92;50.01;99143.34;5096511;28;20130;-83
2022/05/11 07:26:55;;;;;;;1.50;0.60;;;;;;;20.43;49.99;99139.94;5096588;28;20138;-83
2022/05/11 07:29:22;;;;;;;0.95;0.45;;;;;;;20.68;51.54;99151.50;5097002;28;20120;-83
2022/05/11 07:31:49;;;;;;;1.00;0.40;;;;;;;20.95;50.66;99137.13;5095890;28;20054;-83
2022/05/11 07:34:17;;;;;;;1.70;0.80;;;;;;;20.72;49.86;99142.25;5099935;28;20474;-83
2022/05/11 07:36:43;;;;;;;1.23;0.50;;;;;;;21.64;46.21;99114.72;5088718;28;20490;-82
2022/05/11 07:39:10;;;;;;;1.13;0.50;;;;;;;21.47;45.35;99132.53;5095201;28;20048;-84
2022/05/11 07:41:38;;;;;;;0.40;0.40;;;;;;;20.58;45.54;99148.97;5097187;28;20059;-83
2022/05/11 07:44:05;;;;;;;1.02;0.45;;;;;;;20.20;46.06;99159.13;5087600;28;20054;-84
2022/05/11 07:46:35;;;;;;;3.83;0.60;;;;;;;20.23;45.58;99134.03;5100208;28;20052;-83
2022/05/11 07:49:04;;;;;;;2.30;0.50;;;;;;;20.12;45.77;99151.09;5096789;28;20136;-84
2022/05/11 07:51:32;;;;;;;1.42;0.57;;;;;;;20.12;46.16;99168.88;5113371;28;20050;-84
2022/05/11 07:53:59;;;;;;;1.85;0.63;;;;;;;19.38;46.44;99170.94;5114494;28;20751;-87
2022/05/11 08:01:57;;;;;;;3.15;0.80;;;;;;;19.32;44.27;99145.84;5105260;28;20053;-85
2022/05/11 08:04:24;;;;;;;2.88;0.60;;;;;;;19.14;44.69;99170.56;5115315;28;20401;-85
2022/05/11 08:06:51;;;;;;;2.50;0.65;;;;;;;19.78;44.96;99183.75;5115101;28;20062;-85
2022/05/11 08:09:18;;;;;;;0.93;0.50;;;;;;;19.97;44.98;99161.44;5114856;28;20051;-85
2022/05/11 08:11:47;;;;;;;1.60;0.70;;;;;;;20.32;43.79;99153.50;5113565;28;20075;-85
2022/05/11 08:14:14;;;;;;;4.05;0.88;;;;;;;20.01;42.71;99168.13;5096537;28;20071;-84
2022/05/11 08:16:42;;;;;;;2.95;0.80;;;;;;;20.08;43.99;99186.94;5102607;28;20093;-84
2022/05/11 08:19:09;;;;;;;3.92;0.98;;;;;;;19.68;42.56;99185.63;5094770;28;20086;-85
2022/05/11 08:21:36;;;;;;;1.63;0.60;;;;;;;19.75;41.79;99162.81;5112429;28;20079;-84
2022/05/11 08:24:03;;;;;;;1.73;0.82;;;;;;;20.30;42.57;99186.38;5115241;28;20433;-85
2022/05/11 08:26:30;;;;;;;1.58;0.70;;;;;;;19.82;42.08;99155.88;5114492;28;20515;-84
2022/05/11 08:28:57;;;;;;;2.20;0.63;;;;;;;20.41;42.21;99182.63;5115175;28;20429;-84
2022/05/11 08:34:09;;;;;;;2.63;0.80;;;;;;;20.23;40.47;99190.66;5114957;28;20174;-85
2022/05/11 08:36:37;;;;;;;1.75;0.70;;;;;;;19.66;42.26;99153.91;5114868;28;20043;-85
2022/05/11 08:39:04;;;;;;;1.77;0.60;;;;;;;20.57;39.79;99179.19;5101528;28;20051;-84
2022/05/11 08:41:51;;;;;;;3.05;0.60;;;;;;;19.67;39.79;99147.63;5110168;28;20056;-84
2022/05/11 08:44:22;;;;;;;1.05;0.73;;;;;;;19.94;41.09;99187.50;5097300;28;20707;-84
2022/05/11 08:47:04;;;;;;;4.07;0.93;;;;;;;19.33;40.23;99216.50;5095535;28;20091;-84
2022/05/11 08:49:52;;;;;;;3.42;0.80;;;;;;;19.86;41.43;99220.97;5096646;28;20051;-84
2022/05/11 08:52:54;;;;;;;2.85;0.82;;;;;;;19.77;41.35;99223.72;5111418;28;20048;-84
2022/05/11 08:55:31;;;;;;;3.28;0.93;;;;;;;20.01;41.40;99223.91;5086842;28;20043;-84
2022/05/11 08:58:06;;;;;;;3.85;0.90;;;;;;;20.37;40.97;99226.47;5105207;28;20057;-84
2022/05/11 09:00:39;;;;;;;4.18;0.73;;;;;;;20.03;41.03;99171.47;5086197;28;20405;-84
2022/05/11 09:03:22;;;;;;;3.60;0.90;;;;;;;20.60;41.47;99217.94;5109159;28;20048;-84
2022/05/11 09:05:49;;;;;;;3.03;0.73;;;;;;;20.17;40.68;99161.22;5085902;28;20036;-84
2022/05/11 09:08:16;;;;;;;2.60;0.77;;;;;;;19.82;41.42;99178.97;5099269;28;20134;-85
2022/05/11 09:10:44;;;;;;;2.25;0.70;;;;;;;19.95;42.04;99231.66;5103951;28;20051;-82
2022/05/11 09:13:16;;;;;;;2.25;0.80;;;;;;;19.99;41.39;99183.41;5092086;28;20058;-84
2022/05/11 09:15:55;;;;;;;4.22;0.90;;;;;;;20.32;41.29;99220.78;5093611;28;20048;-84
2022/05/11 09:18:31;;;;;;;3.20;0.70;;;;;;;20.25;41.19;99230.38;5093086;28;20143;-84
2022/05/11 09:21:12;;;;;;;2.55;0.70;;;;;;;19.94;41.77;99222.88;5094994;28;20862;-85
2022/05/11 09:23:42;;;;;;;3.60;0.90;;;;;;;19.61;42.71;99196.03;5096156;28;20054;-84
2022/05/11 09:26:16;;;;;;;3.50;0.80;;;;;;;19.58;42.49;99241.44;5091715;28;20044;-85
2022/05/11 09:28:45;;;;;;;1.85;0.70;;;;;;;19.71;42.81;99201.25;5093618;28;20139;-84
2022/05/11 09:31:23;;;;;;;2.75;0.73;;;;;;;19.90;42.03;99205.56;5106682;28;20074;-85
2022/05/11 09:34:03;;;;;;;3.17;0.77;;;;;;;20.61;41.88;99220.47;5113515;28;20464;-84
2022/05/11 09:37:01;;;;;;;2.63;0.80;;;;;;;20.81;41.57;99206.94;5112756;28;20047;-84
2022/05/11 09:39:31;;;;;;;3.92;0.85;;;;;;;20.44;41.28;99226.66;5112881;28;20138;-84
2022/05/11 09:42:12;;;;;;;1.20;0.65;;;;;;;20.26;40.86;99235.53;5089662;27;20095;-82
2022/05/11 09:44:43;;;;;;;2.58;0.77;;;;;;;20.11;40.65;99215.84;5107210;28;20040;-84
2022/05/11 09:47:30;;;;;;;3.42;0.60;;;;;;;20.69;40.73;99221.50;5094134;28;20044;-84
2022/05/11 09:50:25;;;;;;;1.35;0.70;;;;;;;20.70;41.46;99226.66;5095360;28;20503;-84
2022/05/11 09:53:07;;;;;;;4.00;0.80;;;;;;;21.46;41.61;99229.38;5111686;28;20442;-84
2022/05/11 09:55:34;;;;;;;4.45;1.15;;;;;;;21.08;39.13;99199.69;5091395;28;20094;-85
2022/05/11 09:58:08;;;;;;;2.83;0.73;;;;;;;20.96;39.93;99189.34;5095185;28;20044;-83
2022/05/11 10:00:40;;;;;;;6.13;0.93;;;;;;;20.47;40.00;99213.06;5094310;28;20059;-84
2022/05/11 10:03:12;;;;;;;1.40;0.70;;;;;;;20.29;39.93;99198.03;5088649;28;20047;-84
2022/05/11 10:05:50;;;;;;;3.13;0.80;;;;;;;20.88;38.98;99223.09;5113069;28;20122;-84
2022/05/11 10:08:34;;;;;;;4.78;0.90;;;;;;;21.18;39.30;99243.78;5113405;28;20051;-84
2022/05/11 10:11:06;;;;;;;4.03;0.70;;;;;;;21.54;40.03;99238.22;5093857;28;20046;-84
2022/05/11 10:13:44;;;;;;;5.30;0.83;;;;;;;21.18;39.37;99242.97;5113326;28;20447;-84
2022/05/11 10:22:20;;;;;;;5.07;0.88;;;;;;;21.00;38.50;99211.97;5112510;28;20130;-84
2022/05/11 10:25:01;;;;;;;2.00;0.80;;;;;;;21.67;39.27;99245.72;5112446;28;20055;-84
2022/05/11 10:28:25;;;;;;;5.82;0.90;;;;;;;21.77;38.34;99241.06;5094874;28;20053;-84
2022/05/11 10:31:06;;;;;;;2.65;0.80;;;;;;;21.43;38.99;99222.53;4993206;28;20046;-83
2022/05/11 10:33:45;;;;;;;2.83;0.70;;;;;;;21.97;37.79;99249.56;5010274;28;20054;-84
2022/05/11 10:36:30;;;;;;;2.65;0.70;;;;;;;21.77;38.30;99249.03;5074785;28;20048;-84
2022/05/11 10:39:00;;;;;;;4.15;1.00;;;;;;;21.48;39.54;99260.19;5091247;28;20059;-84
2022/05/11 10:41:48;;;;;;;4.90;0.80;;;;;;;21.27;38.54;99233.16;5090918;28;20409;-84
2022/05/11 10:44:21;;;;;;;3.53;0.77;;;;;;;21.41;38.99;99259.16;5074367;28;20058;-84
2022/05/11 10:47:03;;;;;;;2.50;0.70;;;;;;;21.35;38.80;99246.47;5092092;28;20048;-84
2022/05/11 10:49:58;;;;;;;3.90;0.80;;;;;;;21.45;38.26;99276.44;5092782;28;20392;-84
2022/05/11 10:52:43;;;;;;;2.25;0.70;;;;;;;20.80;39.70;99279.72;5097975;28;20058;-84
2022/05/11 10:55:35;;;;;;;3.30;0.80;;;;;;;20.44;40.36;99261.22;5094650;28;20054;-84
2022/05/11 10:58:17;;;;;;;2.47;0.63;;;;;;;20.60;39.84;99279.09;5094632;28;20044;-84
2022/05/11 11:00:53;;;;;;;3.05;0.60;;;;;;;20.34;40.48;99268.47;5093723;28;20087;-84
2022/05/11 11:03:36;;;;;;;5.35;0.98;;;;;;;19.50;41.93;99241.41;5112510;28;20058;-84
2022/05/11 11:09:28;;;;;;;2.47;0.70;;;;;;;20.56;39.82;99264.47;5112560;28;20048;-84
2022/05/11 11:11:55;;;;;;;1.35;0.60;;;;;;;21.02;39.44;99281.81;5111742;28;20069;-85
2022/05/11 11:14:30;;;;;;;3.70;0.82;;;;;;;20.61;40.28;99294.03;5112003;28;20047;-85
2022/05/11 11:17:04;;;;;;;2.90;0.70;;;;;;;20.64;40.52;99252.03;5111922;28;20067;-84
2022/05/11 11:19:33;;;;;;;1.90;0.70;;;;;;;20.94;40.61;99265.00;5094045;28;20061;-84
2022/05/11 11:22:01;;;;;;;2.10;0.80;;;;;;;20.65;40.74;99263.53;5089762;28;20127;-84
2022/05/11 11:24:29;;;;;;;1.20;0.70;;;;;;;20.57;40.30;99272.25;5090729;28;20591;-84
2022/05/11 11:27:06;;;;;;;3.72;0.65;;;;;;;20.85;40.53;99304.84;5091631;28;20047;-84
2022/05/11 11:29:38;;;;;;;1.95;0.70;;;;;;;20.37;41.12;99284.94;5091838;28;20048;-84
2022/05/11 11:32:11;;;;;;;1.85;0.73;;;;;;;20.47;41.38;99243.13;5092989;28;20044;-84
2022/05/11 11:34:50;;;;;;;0.52;0.50;;;;;;;20.47;41.21;99282.19;5094267;28;20489;-84
2022/05/11 11:37:32;;;;;;;2.13;0.70;;;;;;;20.45;41.15;99290.31;5093991;28;20052;-84
2022/05/11 11:40:19;;;;;;;0.93;0.60;;;;;;;20.81;41.23;99308.00;5095637;28;20441;-84
2022/05/11 11:42:46;;;;;;;0.98;0.60;;;;;;;20.03;40.36;99295.50;5113396;28;20044;-84
2022/05/11 11:45:29;;;;;;;3.50;0.88;;;;;;;20.02;40.45;99320.38;5097927;28;20047;-85
2022/05/11 11:48:03;;;;;;;2.15;0.60;;;;;;;20.51;40.51;99331.41;5097950;28;20058;-84
2022/05/11 11:50:54;;;;;;;1.85;0.65;;;;;;;20.60;39.80;99311.84;5116115;28;20044;-84
2022/05/11 11:53:55;;;;;;;2.85;0.73;;;;;;;20.55;41.04;99330.06;5111578;28;20050;-84
2022/05/11 11:56:25;;;;;;;1.73;0.60;;;;;;;21.13;40.33;99328.59;5097637;28;20051;-85
2022/05/11 11:59:10;;;;;;;1.10;0.70;;;;;;;20.86;39.91;99321.66;5097747;28;20043;-84
2022/05/11 12:01:46;;;;;;;2.80;0.70;;;;;;;20.78;40.56;99342.88;5114889;28;20532;-84
2022/05/11 12:04:24;;;;;;;1.88;0.70;;;;;;;20.29;40.76;99295.50;5115699;28;20051;-84
2022/05/11 12:15:37;;;;;;;4.40;0.85;;;;;;;20.71;41.41;99332.03;5115048;28;20077;-84
2022/05/11 12:18:38;;;;;;;1.38;0.65;;;;;;;20.29;43.84;99351.31;5077483;28;20123;-84
2022/05/11 12:21:21;;;;;;;4.30;0.90;;;;;;;19.60;44.29;99335.06;5094659;28;20095;-85
2022/05/11 12:23:50;;;;;;;3.00;0.70;;;;;;;19.39;51.67;99363.69;5095876;28;20047;-84
2022/05/11 12:26:27;;;;;;;5.60;0.90;;;;;;;19.59;52.07;99369.72;5095695;28;20043;-84
2022/05/11 12:32:08;;;;;;;2.92;0.60;;;;;;;20.60;54.12;99377.47;5111992;28;20131;-85
2022/05/11 12:34:44;;;;;;;2.90;0.80;;;;;;;20.56;49.29;99361.00;5094879;28;20043;-84